createdAt,value
2022-12-16T00:01:27.757Z,60.90
2022-12-16T00:03:31.146Z,60.90
2022-12-16T00:05:42.714Z,60.90
2022-12-16T00:07:47.404Z,61.00
2022-12-16T00:09:50.371Z,61.20
2022-12-16T00:11:54.738Z,61.30
2022-12-16T00:13:57.765Z,61.40
2022-12-16T00:16:06.384Z,62.00
2022-12-16T00:18:09.604Z,61.10
2022-12-16T00:20:13.546Z,60.90
2022-12-16T00:22:16.586Z,61.20
2022-12-16T00:24:19.726Z,61.20
2022-12-16T00:26:22.720Z,61.20
2022-12-16T00:28:26.120Z,61.30
2022-12-16T00:30:29.026Z,61.60
2022-12-16T00:32:33.370Z,61.60
2022-12-16T00:34:36.249Z,61.40
2022-12-16T00:36:39.138Z,61.20
2022-12-16T00:38:42.117Z,61.10
2022-12-16T00:40:45.667Z,61.30
2022-12-16T00:42:48.548Z,61.60
2022-12-16T00:44:51.511Z,61.70
2022-12-16T00:46:54.991Z,61.70
2022-12-16T00:48:59.799Z,61.40
2022-12-16T00:51:02.800Z,61.40
2022-12-16T00:53:06.509Z,61.40
2022-12-16T00:55:10.307Z,61.60
2022-12-16T00:57:13.247Z,61.60
2022-12-16T00:59:16.356Z,61.80
2022-12-16T01:01:19.821Z,61.90
2022-12-16T01:03:22.831Z,62.10
2022-12-16T01:05:27.772Z,62.00
2022-12-16T01:07:30.810Z,61.80
2022-12-16T01:09:34.984Z,61.40
2022-12-16T01:11:37.813Z,61.30
2022-12-16T01:13:40.774Z,60.90
2022-12-16T01:15:43.876Z,61.00
2022-12-16T01:17:47.314Z,60.80
2022-12-16T01:19:50.335Z,60.90
2022-12-16T01:21:54.737Z,60.60
2022-12-16T01:23:57.850Z,60.70
2022-12-16T01:26:02.523Z,60.80
2022-12-16T01:28:05.691Z,60.90
2022-12-16T01:30:10.104Z,61.10
2022-12-16T01:32:14.784Z,60.70
2022-12-16T01:34:18.167Z,60.60
2022-12-16T01:36:21.687Z,60.70
2022-12-16T01:38:26.057Z,60.70
2022-12-16T01:40:29.081Z,61.30
2022-12-16T01:42:33.594Z,60.60
2022-12-16T01:44:36.594Z,60.50
2022-12-16T01:46:39.609Z,60.30
2022-12-16T01:48:47.784Z,60.30
2022-12-16T01:50:53.185Z,60.40
2022-12-16T01:53:00.145Z,60.40
2022-12-16T01:55:09.446Z,60.10
2022-12-16T01:57:16.914Z,60.10
2022-12-16T01:59:21.166Z,60.70
2022-12-16T02:01:24.661Z,60.90
2022-12-16T02:03:31.119Z,60.90
2022-12-16T02:05:35.661Z,60.90
2022-12-16T02:07:38.659Z,60.60
2022-12-16T02:09:41.560Z,60.30
2022-12-16T02:12:13.301Z,60.20
2022-12-16T02:14:40.498Z,60.20
2022-12-16T02:16:52.651Z,60.00
2022-12-16T02:19:11.088Z,60.00
2022-12-16T02:21:49.064Z,60.50
2022-12-16T02:24:25.839Z,60.90
2022-12-16T02:26:47.123Z,60.90
2022-12-16T02:29:22.902Z,60.70
2022-12-16T02:31:35.004Z,60.60
2022-12-16T02:33:56.128Z,60.60
2022-12-16T02:36:07.997Z,60.90
2022-12-16T02:38:22.804Z,61.00
2022-12-16T02:40:29.319Z,61.30
2022-12-16T02:42:35.625Z,61.40
2022-12-16T02:44:56.205Z,61.40
2022-12-16T02:47:00.458Z,61.20
2022-12-16T02:49:08.352Z,61.20
2022-12-16T02:51:11.683Z,61.20
2022-12-16T02:53:14.845Z,61.20
2022-12-16T02:55:18.523Z,61.40
2022-12-16T02:58:01.286Z,61.70
2022-12-16T03:00:07.865Z,61.40
2022-12-16T03:02:20.492Z,61.00
2022-12-16T03:04:29.393Z,61.40
2022-12-16T03:06:34.307Z,61.80
2022-12-16T03:08:41.678Z,61.90
2022-12-16T03:10:54.812Z,61.70
2022-12-16T03:13:00.800Z,61.30
2022-12-16T03:15:04.683Z,61.20
2022-12-16T03:17:09.668Z,61.20
2022-12-16T03:19:14.693Z,61.20
2022-12-16T03:21:19.279Z,61.20
2022-12-16T03:23:29.231Z,60.90
2022-12-16T03:25:35.624Z,60.80
2022-12-16T03:27:47.169Z,60.70
2022-12-16T03:29:55.388Z,60.70
2022-12-16T03:32:03.241Z,60.40
2022-12-16T03:34:13.730Z,60.30
2022-12-16T03:36:22.906Z,60.30
2022-12-16T03:38:27.765Z,60.40
2022-12-16T03:40:32.993Z,60.30
2022-12-16T03:42:37.463Z,60.20
2022-12-16T03:44:40.599Z,60.00
2022-12-16T03:46:43.597Z,59.80
2022-12-16T03:48:48.181Z,59.90
2022-12-16T03:50:51.321Z,60.00
2022-12-16T03:52:55.820Z,59.80
2022-12-16T03:54:58.885Z,59.80
2022-12-16T03:57:01.952Z,60.00
2022-12-16T03:59:04.936Z,60.00
2022-12-16T04:01:09.518Z,60.50
2022-12-16T04:03:12.647Z,60.70
2022-12-16T04:05:16.121Z,60.60
2022-12-16T04:07:21.682Z,61.90
2022-12-16T04:09:25.970Z,62.80
2022-12-16T04:11:46.500Z,63.30
2022-12-16T04:14:07.004Z,63.30
2022-12-16T04:16:29.708Z,63.00
2022-12-16T04:18:51.092Z,62.90
2022-12-16T04:21:14.142Z,62.90
2022-12-16T04:23:35.602Z,63.00
2022-12-16T04:25:40.204Z,62.90
2022-12-16T04:27:47.127Z,62.60
2022-12-16T04:30:07.902Z,62.30
2022-12-16T04:32:11.098Z,61.90
2022-12-16T04:34:29.392Z,61.70
2022-12-16T04:36:50.187Z,62.10
2022-12-16T04:39:19.436Z,62.70
2022-12-16T04:41:41.037Z,62.70
2022-12-16T04:44:01.951Z,62.90
2022-12-16T04:46:22.663Z,62.60
2022-12-16T04:48:43.123Z,62.50
2022-12-16T04:51:03.998Z,62.20
2022-12-16T04:53:24.532Z,61.80
2022-12-16T04:55:44.843Z,61.90
2022-12-16T04:58:21.201Z,61.80
2022-12-16T05:00:55.913Z,61.80
2022-12-16T05:03:16.617Z,62.00
2022-12-16T05:05:33.520Z,62.10
2022-12-16T05:07:53.904Z,61.70
2022-12-16T05:10:14.629Z,61.50
2022-12-16T05:12:34.951Z,61.40
2022-12-16T05:14:57.151Z,61.20
2022-12-16T05:17:17.765Z,60.60
2022-12-16T05:19:38.476Z,60.80
2022-12-16T05:22:01.235Z,61.00
2022-12-16T05:24:21.887Z,60.90
2022-12-16T05:26:42.087Z,60.70
2022-12-16T05:29:02.343Z,60.50
2022-12-16T05:31:24.061Z,60.60
2022-12-16T05:33:44.825Z,60.60
2022-12-16T05:36:05.296Z,60.70
2022-12-16T05:38:25.577Z,60.50
2022-12-16T05:40:45.328Z,60.20
2022-12-16T05:43:06.549Z,60.40
2022-12-16T05:45:27.138Z,60.40
2022-12-16T05:47:48.633Z,60.20
2022-12-16T05:50:08.850Z,60.10
2022-12-16T05:52:29.614Z,60.10
2022-12-16T05:54:50.053Z,60.30
2022-12-16T05:57:10.507Z,60.00
2022-12-16T05:59:36.241Z,59.80
2022-12-16T06:01:56.616Z,59.70
2022-12-16T06:04:18.758Z,59.70
2022-12-16T06:06:39.413Z,59.50
2022-12-16T06:09:00.055Z,60.00
2022-12-16T06:11:20.557Z,60.30
2022-12-16T06:13:40.883Z,60.30
2022-12-16T06:16:06.639Z,60.20
2022-12-16T06:18:28.639Z,59.70
2022-12-16T06:20:46.894Z,60.10
2022-12-16T06:23:10.042Z,60.10
2022-12-16T06:25:30.665Z,60.10
2022-12-16T06:27:51.260Z,60.00
2022-12-16T06:30:13.791Z,60.50
2022-12-16T06:32:34.650Z,60.40
2022-12-16T06:34:55.086Z,60.90
2022-12-16T06:37:16.911Z,61.30
2022-12-16T06:39:37.359Z,61.20
2022-12-16T06:41:57.646Z,61.50
2022-12-16T06:44:18.245Z,61.20
2022-12-16T06:46:38.448Z,61.00
2022-12-16T06:48:58.794Z,60.90
2022-12-16T06:51:19.314Z,61.20
2022-12-16T06:53:41.473Z,61.30
2022-12-16T06:56:02.008Z,61.40
2022-12-16T06:58:22.441Z,61.20
2022-12-16T07:00:43.136Z,61.30
2022-12-16T07:03:04.579Z,61.20
2022-12-16T07:05:25.416Z,61.20
2022-12-16T07:07:46.002Z,61.30
2022-12-16T07:10:07.630Z,61.30
2022-12-16T07:12:28.088Z,61.20
2022-12-16T07:14:48.462Z,61.40
2022-12-16T07:17:12.395Z,61.50
2022-12-16T07:19:37.227Z,61.60
2022-12-16T07:22:00.035Z,62.00
2022-12-16T07:24:20.541Z,62.20
2022-12-16T07:26:42.194Z,62.40
2022-12-16T07:29:14.076Z,62.70
2022-12-16T07:31:35.079Z,63.00
2022-12-16T07:33:55.476Z,63.30
2022-12-16T07:36:15.834Z,63.50
2022-12-16T07:38:36.232Z,63.70
2022-12-16T07:40:57.094Z,63.90
2022-12-16T07:43:19.071Z,64.30
2022-12-16T07:45:44.897Z,64.70
2022-12-16T07:48:06.019Z,64.60
2022-12-16T07:50:27.409Z,64.40
2022-12-16T07:52:49.750Z,64.50
2022-12-16T07:55:11.432Z,65.30
2022-12-16T07:57:32.081Z,65.80
2022-12-16T07:59:54.053Z,65.90
2022-12-16T08:02:14.544Z,66.30
2022-12-16T08:04:34.918Z,66.60
2022-12-16T08:06:55.388Z,67.30
2022-12-16T08:09:15.897Z,67.40
2022-12-16T08:11:36.206Z,67.60
2022-12-16T08:13:59.045Z,67.70
2022-12-16T08:16:35.427Z,67.90
2022-12-16T08:18:56.897Z,67.90
2022-12-16T08:21:17.551Z,68.80
2022-12-16T08:23:37.958Z,68.60
2022-12-16T08:25:58.340Z,69.30
2022-12-16T08:28:19.111Z,69.40
2022-12-16T08:30:39.497Z,69.30
2022-12-16T08:33:09.436Z,69.20
2022-12-16T08:35:35.956Z,69.00
2022-12-16T08:37:56.307Z,69.00
2022-12-16T08:40:34.940Z,69.10
2022-12-16T08:42:56.360Z,69.20
2022-12-16T08:45:16.860Z,69.30
2022-12-16T08:47:37.561Z,69.40
2022-12-16T08:50:01.723Z,69.60
2022-12-16T08:52:28.729Z,69.50
2022-12-16T08:54:48.978Z,69.70
2022-12-16T08:57:09.286Z,69.50
2022-12-16T08:59:29.788Z,69.50
2022-12-16T09:01:50.506Z,69.70
2022-12-16T09:04:13.932Z,69.90
2022-12-16T09:06:40.440Z,70.10
2022-12-16T09:09:01.414Z,70.00
2022-12-16T09:11:21.722Z,70.10
2022-12-16T09:13:42.028Z,70.00
2022-12-16T09:16:02.649Z,69.90
2022-12-16T09:18:19.593Z,70.70
2022-12-16T09:20:39.942Z,70.30
2022-12-16T09:23:01.954Z,70.00
2022-12-16T09:25:22.702Z,70.10
2022-12-16T09:27:43.273Z,70.10
2022-12-16T09:30:03.576Z,70.20
2022-12-16T09:32:24.021Z,70.10
2022-12-16T09:34:44.607Z,70.00
2022-12-16T09:37:05.234Z,69.80
2022-12-16T09:39:26.819Z,70.20
2022-12-16T09:42:01.120Z,70.00
2022-12-16T09:44:28.605Z,70.00
2022-12-16T09:47:02.088Z,69.60
2022-12-16T09:49:35.955Z,69.50
2022-12-16T09:52:05.742Z,70.00
2022-12-16T09:54:33.622Z,69.80
2022-12-16T09:56:55.475Z,69.60
2022-12-16T09:59:19.965Z,69.70
2022-12-16T10:01:41.223Z,69.70
2022-12-16T10:04:01.944Z,69.80
2022-12-16T10:06:30.410Z,69.60
2022-12-16T10:08:58.759Z,69.70
2022-12-16T10:11:30.702Z,69.70
2022-12-16T10:13:58.835Z,69.80
2022-12-16T10:16:27.320Z,70.00
2022-12-16T10:19:00.573Z,69.90
2022-12-16T10:21:22.608Z,69.70
2022-12-16T10:23:50.343Z,70.20
2022-12-16T10:26:16.579Z,69.70
2022-12-16T10:28:53.886Z,69.70
2022-12-16T10:31:16.561Z,69.60
2022-12-16T10:33:39.325Z,69.70
2022-12-16T10:36:04.431Z,69.80
2022-12-16T10:38:33.223Z,69.40
2022-12-16T10:40:54.303Z,69.40
2022-12-16T10:43:31.220Z,69.60
2022-12-16T10:45:56.503Z,69.60
2022-12-16T10:48:16.974Z,69.00
2022-12-16T10:50:37.421Z,69.00
2022-12-16T10:53:08.099Z,68.80
2022-12-16T10:55:43.665Z,68.50
2022-12-16T10:58:15.121Z,68.90
2022-12-16T11:00:38.853Z,69.70
2022-12-16T11:03:03.089Z,69.70
2022-12-16T11:05:50.227Z,69.40
2022-12-16T11:08:08.363Z,69.10
2022-12-16T11:10:54.459Z,69.20
2022-12-16T11:13:38.761Z,68.60
2022-12-16T11:16:02.586Z,69.70
2022-12-16T11:18:28.514Z,70.30
2022-12-16T11:20:49.125Z,70.10
2022-12-16T11:23:27.172Z,69.10
2022-12-16T11:25:47.606Z,69.90
2022-12-16T11:28:08.042Z,69.80
2022-12-16T11:30:37.619Z,70.00
2022-12-16T11:33:02.349Z,69.50
2022-12-16T11:35:30.045Z,69.30
2022-12-16T11:37:50.568Z,69.90
2022-12-16T11:40:10.921Z,70.20
2022-12-16T11:42:39.968Z,70.70
2022-12-16T11:45:05.498Z,70.40
2022-12-16T11:47:34.799Z,70.20
2022-12-16T11:49:55.376Z,70.80
2022-12-16T11:52:36.741Z,70.70
2022-12-16T11:55:08.732Z,70.20
2022-12-16T11:57:37.744Z,70.50
2022-12-16T12:00:00.797Z,70.70
2022-12-16T12:02:28.784Z,70.60
2022-12-16T12:04:49.316Z,70.40
2022-12-16T12:07:25.026Z,70.40
2022-12-16T12:09:46.898Z,71.20
2022-12-16T12:12:13.198Z,71.10
2022-12-16T12:14:56.500Z,70.30
2022-12-16T12:17:29.897Z,70.80
2022-12-16T12:20:01.941Z,70.50
2022-12-16T12:22:31.341Z,70.50
2022-12-16T12:25:01.133Z,70.80
2022-12-16T12:27:27.580Z,70.60
2022-12-16T12:30:01.522Z,69.90
2022-12-16T12:32:29.964Z,70.20
2022-12-16T12:34:59.170Z,70.60
2022-12-16T12:37:27.130Z,70.50
2022-12-16T12:39:53.775Z,69.70
2022-12-16T12:42:28.495Z,70.30
2022-12-16T12:45:10.712Z,71.30
2022-12-16T12:47:31.974Z,71.00
2022-12-16T12:50:00.826Z,71.00
2022-12-16T12:52:30.306Z,71.40
2022-12-16T12:54:56.431Z,71.80
2022-12-16T12:57:19.008Z,72.10
2022-12-16T12:59:43.006Z,71.80
2022-12-16T13:02:06.082Z,71.60
2022-12-16T13:04:31.976Z,72.10
2022-12-16T13:06:54.249Z,72.30
2022-12-16T13:09:23.910Z,72.30
2022-12-16T13:11:44.000Z,71.80
2022-12-16T13:14:04.353Z,72.00
2022-12-16T13:16:29.787Z,72.10
2022-12-16T13:18:51.009Z,71.60
2022-12-16T13:21:13.843Z,71.50
2022-12-16T13:23:56.306Z,72.20
2022-12-16T13:26:23.808Z,72.30
2022-12-16T13:28:47.884Z,71.60
2022-12-16T13:31:25.184Z,71.40
2022-12-16T13:33:48.098Z,71.50
2022-12-16T13:36:13.545Z,71.60
2022-12-16T13:38:40.047Z,71.50
2022-12-16T13:41:12.862Z,72.60
2022-12-16T13:44:03.747Z,72.80
2022-12-16T13:46:35.856Z,71.90
2022-12-16T13:48:58.504Z,71.30
2022-12-16T13:51:19.357Z,71.00
2022-12-16T13:53:41.639Z,71.40
2022-12-16T13:56:13.237Z,70.40
2022-12-16T13:58:48.290Z,70.60
2022-12-16T14:01:21.601Z,70.30
2022-12-16T14:03:54.496Z,70.30
2022-12-16T14:06:14.853Z,70.00
2022-12-16T14:08:37.953Z,69.50
2022-12-16T14:11:01.435Z,69.70
2022-12-16T14:13:25.803Z,69.80
2022-12-16T14:15:52.811Z,69.60
2022-12-16T14:18:18.289Z,70.20
2022-12-16T14:20:44.296Z,70.40
2022-12-16T14:23:32.369Z,70.20
2022-12-16T14:25:54.716Z,70.10
2022-12-16T14:28:16.825Z,70.10
2022-12-16T14:30:40.148Z,70.00
2022-12-16T14:33:02.208Z,69.90
2022-12-16T14:35:25.633Z,69.60
2022-12-16T14:37:53.067Z,70.00
2022-12-16T14:40:14.623Z,69.80
2022-12-16T14:42:38.972Z,70.60
2022-12-16T14:45:02.888Z,69.30
2022-12-16T14:47:22.847Z,69.60
2022-12-16T14:49:48.762Z,70.00
2022-12-16T14:52:09.583Z,70.10
2022-12-16T14:54:42.911Z,69.60
2022-12-16T14:57:05.631Z,69.80
2022-12-16T14:59:32.426Z,69.80
2022-12-16T15:01:54.225Z,69.70
2022-12-16T15:04:15.530Z,69.60
2022-12-16T15:06:44.565Z,69.70
2022-12-16T15:09:08.986Z,69.60
2022-12-16T15:11:33.365Z,69.00
2022-12-16T15:13:57.819Z,69.60
2022-12-16T15:16:23.303Z,69.50
2022-12-16T15:18:49.390Z,69.90
2022-12-16T15:21:11.739Z,69.60
2022-12-16T15:23:39.770Z,69.60
2022-12-16T15:26:05.796Z,69.40
2022-12-16T15:28:42.444Z,70.10
2022-12-16T15:31:04.876Z,70.60
2022-12-16T15:33:25.390Z,71.00
2022-12-16T15:35:52.386Z,71.40
2022-12-16T15:38:16.053Z,72.10
2022-12-16T15:40:44.586Z,72.20
2022-12-16T15:43:09.653Z,72.50
2022-12-16T15:45:41.536Z,72.40
2022-12-16T15:48:01.921Z,72.70
2022-12-16T15:50:24.944Z,72.80
2022-12-16T15:52:53.460Z,73.40
2022-12-16T15:55:13.644Z,73.50
2022-12-16T15:57:47.517Z,73.10
2022-12-16T16:00:15.710Z,73.00
2022-12-16T16:02:41.172Z,72.70
2022-12-16T16:05:01.903Z,72.50
2022-12-16T16:07:22.479Z,72.40
2022-12-16T16:09:45.627Z,72.60
2022-12-16T16:12:06.151Z,72.60
2022-12-16T16:14:44.101Z,72.30
2022-12-16T16:17:07.776Z,71.80
2022-12-16T16:19:39.067Z,71.90
2022-12-16T16:21:59.302Z,72.00
2022-12-16T16:24:19.987Z,71.60
2022-12-16T16:26:45.250Z,71.50
2022-12-16T16:29:05.624Z,71.20
2022-12-16T16:31:29.198Z,70.90
2022-12-16T16:33:49.681Z,71.10
2022-12-16T16:36:10.090Z,71.10
2022-12-16T16:38:31.161Z,71.10
2022-12-16T16:40:55.580Z,70.80
2022-12-16T16:43:15.961Z,70.70
2022-12-16T16:45:36.441Z,70.20
2022-12-16T16:47:58.377Z,70.30
2022-12-16T16:50:19.606Z,70.70
2022-12-16T16:52:43.185Z,70.50
2022-12-16T16:55:03.656Z,70.60
2022-12-16T16:57:24.688Z,70.50
2022-12-16T16:59:45.089Z,70.10
2022-12-16T17:02:05.963Z,70.10
2022-12-16T17:04:27.738Z,70.00
2022-12-16T17:06:48.378Z,69.90
2022-12-16T17:09:08.963Z,69.70
2022-12-16T17:11:37.011Z,69.70
2022-12-16T17:13:57.410Z,69.80
2022-12-16T17:16:17.923Z,69.40
2022-12-16T17:18:43.737Z,69.50
2022-12-16T17:21:07.153Z,69.30
2022-12-16T17:23:27.386Z,69.10
2022-12-16T17:25:48.144Z,69.20
2022-12-16T17:28:08.813Z,69.10
2022-12-16T17:30:34.555Z,68.50
2022-12-16T17:32:55.074Z,69.00
2022-12-16T17:35:16.300Z,68.90
2022-12-16T17:38:01.257Z,69.10
2022-12-16T17:40:22.174Z,69.20
2022-12-16T17:42:46.481Z,69.30
2022-12-16T17:45:07.533Z,69.00
2022-12-16T17:47:27.854Z,68.90
2022-12-16T17:49:48.134Z,69.20
2022-12-16T17:52:08.727Z,69.20
2022-12-16T17:54:30.595Z,69.10
2022-12-16T17:56:51.010Z,68.30
2022-12-16T17:59:11.588Z,68.60
2022-12-16T18:01:32.157Z,69.20
2022-12-16T18:03:52.729Z,69.10
2022-12-16T18:06:15.185Z,68.90
2022-12-16T18:08:36.103Z,69.20
2022-12-16T18:10:59.441Z,69.40
2022-12-16T18:13:19.989Z,69.40
2022-12-16T18:15:40.304Z,68.90
2022-12-16T18:18:00.812Z,68.80
2022-12-16T18:20:21.345Z,70.00
2022-12-16T18:22:41.664Z,69.30
2022-12-16T18:25:02.241Z,68.60
2022-12-16T18:27:24.155Z,67.90
2022-12-16T18:29:44.373Z,68.50
2022-12-16T18:32:06.494Z,69.00
2022-12-16T18:34:27.028Z,69.00
2022-12-16T18:36:47.231Z,68.90
2022-12-16T18:39:07.820Z,68.00
2022-12-16T18:41:34.490Z,68.60
2022-12-16T18:44:04.568Z,68.40
2022-12-16T18:46:24.995Z,68.10
2022-12-16T18:48:45.576Z,68.20
2022-12-16T18:51:12.123Z,67.90
2022-12-16T18:53:33.108Z,67.70
2022-12-16T18:55:53.685Z,67.20
2022-12-16T18:58:34.801Z,67.20
2022-12-16T19:00:56.252Z,66.90
2022-12-16T19:03:16.839Z,66.80
2022-12-16T19:05:37.531Z,67.20
2022-12-16T19:07:58.052Z,67.40
2022-12-16T19:10:18.625Z,67.00
2022-12-16T19:12:39.275Z,67.00
2022-12-16T19:14:59.584Z,66.00
2022-12-16T19:17:21.441Z,66.70
2022-12-16T19:19:41.700Z,66.90
2022-12-16T19:22:02.271Z,66.60
2022-12-16T19:24:23.380Z,66.90
2022-12-16T19:26:43.945Z,66.50
2022-12-16T19:29:04.708Z,66.10
2022-12-16T19:31:29.530Z,66.80
2022-12-16T19:33:56.674Z,66.50
2022-12-16T19:36:17.452Z,66.60
2022-12-16T19:38:38.833Z,66.30
2022-12-16T19:41:13.323Z,66.40
2022-12-16T19:43:34.627Z,65.90
2022-12-16T19:45:56.264Z,66.00
2022-12-16T19:48:20.518Z,66.50
2022-12-16T19:50:56.405Z,66.60
2022-12-16T19:53:19.553Z,66.80
2022-12-16T19:55:39.835Z,66.70
2022-12-16T19:58:00.084Z,66.50
2022-12-16T20:00:20.312Z,66.30
2022-12-16T20:02:40.241Z,66.20
2022-12-16T20:05:00.782Z,65.90
2022-12-16T20:07:23.465Z,65.80
2022-12-16T20:09:44.007Z,65.80
2022-12-16T20:12:04.451Z,65.10
2022-12-16T20:14:27.541Z,66.20
2022-12-16T20:16:48.153Z,66.70
2022-12-16T20:19:08.513Z,66.40
2022-12-16T20:21:29.916Z,66.70
2022-12-16T20:23:53.736Z,67.00
2022-12-16T20:26:15.904Z,66.80
2022-12-16T20:28:51.027Z,66.70
2022-12-16T20:31:12.346Z,66.40
2022-12-16T20:33:34.232Z,66.20
2022-12-16T20:35:56.133Z,66.00
2022-12-16T20:38:16.908Z,66.10
2022-12-16T20:40:46.843Z,66.30
2022-12-16T20:43:07.115Z,66.30
2022-12-16T20:45:28.721Z,66.40
2022-12-16T20:47:49.022Z,66.40
2022-12-16T20:50:09.286Z,66.40
2022-12-16T20:52:29.826Z,66.20
2022-12-16T20:54:58.639Z,66.30
2022-12-16T20:57:20.484Z,67.10
2022-12-16T20:59:41.168Z,66.50
2022-12-16T21:02:22.553Z,66.40
2022-12-16T21:04:41.540Z,66.40
2022-12-16T21:07:01.854Z,66.20
2022-12-16T21:09:22.689Z,66.40
2022-12-16T21:11:43.251Z,66.00
2022-12-16T21:14:05.534Z,66.30
2022-12-16T21:16:25.896Z,66.40
2022-12-16T21:18:46.301Z,66.60
2022-12-16T21:21:10.897Z,66.40
2022-12-16T21:23:31.298Z,66.40
2022-12-16T21:25:51.741Z,66.30
2022-12-16T21:28:15.199Z,66.30
2022-12-16T21:30:37.271Z,66.60
2022-12-16T21:32:57.624Z,66.70
2022-12-16T21:35:18.663Z,66.60
2022-12-16T21:37:39.064Z,66.60
2022-12-16T21:40:01.210Z,66.70
2022-12-16T21:42:21.659Z,66.60
2022-12-16T21:44:42.070Z,66.80
2022-12-16T21:47:03.655Z,66.60
2022-12-16T21:49:35.628Z,66.70
2022-12-16T21:51:56.608Z,66.40
2022-12-16T21:54:17.909Z,66.40
2022-12-16T21:56:38.106Z,66.60
2022-12-16T21:58:58.520Z,66.60
2022-12-16T22:01:19.296Z,66.40
2022-12-16T22:03:41.357Z,66.50
2022-12-16T22:06:02.189Z,66.70
2022-12-16T22:08:25.123Z,66.70
2022-12-16T22:10:45.644Z,66.60
2022-12-16T22:13:05.983Z,66.70
2022-12-16T22:15:27.675Z,66.60
2022-12-16T22:17:51.746Z,66.60
2022-12-16T22:20:16.638Z,66.60
2022-12-16T22:22:33.698Z,66.50
2022-12-16T22:24:54.357Z,66.20
2022-12-16T22:27:17.493Z,66.10
2022-12-16T22:29:52.403Z,66.50
2022-12-16T22:32:16.724Z,66.60
2022-12-16T22:34:36.976Z,66.10
2022-12-16T22:36:58.635Z,66.40
2022-12-16T22:39:19.184Z,67.20
2022-12-16T22:41:39.824Z,66.30
2022-12-16T22:44:01.788Z,66.50
2022-12-16T22:46:22.432Z,66.60
2022-12-16T22:48:42.975Z,66.50
2022-12-16T22:51:03.201Z,66.30
2022-12-16T22:53:24.773Z,66.50
2022-12-16T22:55:45.344Z,66.60
2022-12-16T22:58:17.259Z,66.60
2022-12-16T23:00:38.081Z,66.60
2022-12-16T23:02:58.699Z,66.70
2022-12-16T23:05:25.365Z,66.60
2022-12-16T23:07:47.957Z,66.60
2022-12-16T23:10:09.648Z,66.70
2022-12-16T23:12:30.182Z,66.60
2022-12-16T23:14:50.852Z,66.90
2022-12-16T23:17:12.103Z,66.70
2022-12-16T23:19:32.526Z,66.70
2022-12-16T23:21:53.022Z,66.60
2022-12-16T23:24:14.491Z,66.20
2022-12-16T23:26:36.548Z,66.30
2022-12-16T23:28:56.819Z,66.70
2022-12-16T23:31:17.348Z,66.70
2022-12-16T23:33:37.882Z,66.80
2022-12-16T23:35:58.250Z,66.70
2022-12-16T23:38:28.516Z,66.50
2022-12-16T23:40:48.841Z,66.60
2022-12-16T23:43:13.039Z,66.60
2022-12-16T23:45:33.725Z,66.70
2022-12-16T23:47:54.279Z,66.50
2022-12-16T23:50:16.764Z,66.30
2022-12-16T23:52:37.290Z,66.10
2022-12-16T23:54:57.627Z,66.40
2022-12-16T23:57:17.919Z,66.80
2022-12-16T23:59:39.784Z,66.90
